Time;durP1;ratioP1;P1;durP2;ratioP2;P2;SDS_P1;SDS_P2;PMS_P1;PMS_P2;Temp;Humidity;BMP_temperature;BMP_pressure;BME280_temperature;BME280_humidity;BME280_pressure;Samples;Min_cycle;Max_cycle;Signal;HPM_P1;HPM_P2
2022/04/13 00:00:09;;;;;;;11.70;7.80;;;12.30;99.90;;;;;;4819291;29;20059;-66
2022/04/13 00:02:35;;;;;;;10.40;7.35;;;12.30;99.90;;;;;;4814675;29;20062;-66
2022/04/13 00:05:01;;;;;;;9.13;8.13;;;12.20;99.90;;;;;;4808064;29;20111;-66
2022/04/13 00:07:26;;;;;;;9.40;8.50;;;12.20;99.90;;;;;;4823818;29;20057;-66
2022/04/13 00:09:52;;;;;;;13.30;8.00;;;12.10;99.90;;;;;;4807846;29;20062;-65
2022/04/13 00:12:17;;;;;;;9.63;7.68;;;12.10;99.90;;;;;;4807678;29;20050;-65
2022/04/13 00:14:43;;;;;;;12.98;8.95;;;12.00;99.90;;;;;;4807541;29;20465;-66
2022/04/13 00:17:09;;;;;;;11.02;8.13;;;12.00;99.90;;;;;;4808123;29;20488;-66
2022/04/13 00:19:34;;;;;;;11.85;8.82;;;11.90;99.90;;;;;;4824369;29;20496;-66
2022/04/13 00:22:00;;;;;;;8.70;7.32;;;11.90;99.90;;;;;;4807590;29;20065;-66
2022/04/13 00:24:25;;;;;;;9.48;8.57;;;11.80;99.90;;;;;;4806266;29;20054;-65
2022/04/13 00:26:51;;;;;;;10.70;8.95;;;11.80;99.90;;;;;;4805675;29;20615;-65
2022/04/13 00:29:18;;;;;;;12.05;8.63;;;11.80;99.90;;;;;;4814276;29;20050;-66
2022/04/13 00:31:44;;;;;;;9.57;8.07;;;11.70;99.90;;;;;;4804766;29;20092;-67
2022/04/13 00:34:09;;;;;;;11.27;8.30;;;11.70;99.90;;;;;;4804525;29;20587;-66
2022/04/13 00:36:35;;;;;;;9.88;8.88;;;11.60;99.90;;;;;;4804754;29;20514;-65
2022/04/13 00:39:01;;;;;;;9.85;8.63;;;11.60;99.90;;;;;;4804787;29;20126;-66
2022/04/13 00:41:26;;;;;;;10.63;8.55;;;11.50;99.90;;;;;;4807092;29;20122;-66
2022/04/13 00:44:01;;;;;;;12.05;8.90;;;11.50;99.90;;;;;;4823854;29;20050;-66
2022/04/13 00:46:27;;;;;;;9.98;7.70;;;11.50;99.90;;;;;;4823382;29;20178;-65
2022/04/13 00:48:53;;;;;;;9.38;8.13;;;11.50;99.90;;;;;;4822764;29;20667;-66
2022/04/13 00:51:18;;;;;;;10.50;8.40;;;11.50;99.90;;;;;;4821728;29;20137;-65
2022/04/13 00:53:45;;;;;;;9.20;8.20;;;11.40;99.90;;;;;;4807919;29;20475;-66
2022/04/13 00:56:12;;;;;;;11.45;9.07;;;11.40;99.90;;;;;;4813685;29;20050;-66
2022/04/13 00:58:39;;;;;;;10.07;9.05;;;11.30;99.90;;;;;;4823247;29;20050;-66
2022/04/13 01:01:06;;;;;;;12.15;9.68;;;11.30;99.90;;;;;;4807177;29;20058;-66
2022/04/13 01:03:36;;;;;;;9.65;8.30;;;11.30;99.90;;;;;;4810265;29;20059;-66
2022/04/13 01:06:02;;;;;;;10.13;9.10;;;11.30;99.90;;;;;;4811936;29;20092;-66
2022/04/13 01:08:29;;;;;;;11.38;9.45;;;11.30;99.90;;;;;;4807730;29;20086;-66
2022/04/13 01:10:56;;;;;;;10.93;9.70;;;11.20;99.90;;;;;;4820817;29;20169;-65
2022/04/13 01:13:22;;;;;;;13.57;10.63;;;11.20;99.90;;;;;;4798672;29;20082;-66
2022/04/13 01:15:48;;;;;;;18.58;10.63;;;11.20;99.90;;;;;;4803216;29;20109;-66
2022/04/13 01:18:14;;;;;;;13.75;11.05;;;11.20;99.90;;;;;;4823346;29;20059;-66
2022/04/13 01:20:48;;;;;;;15.38;10.68;;;11.20;99.90;;;;;;4820422;29;20051;-65
2022/04/13 01:23:14;;;;;;;11.85;10.10;;;11.20;99.90;;;;;;4807107;29;20118;-66
2022/04/13 01:25:47;;;;;;;11.43;10.10;;;11.20;99.90;;;;;;4816331;29;20098;-66
2022/04/13 01:28:13;;;;;;;15.50;10.40;;;11.20;99.90;;;;;;4814410;29;20058;-66
2022/04/13 01:30:38;;;;;;;12.13;9.75;;;11.20;99.90;;;;;;4818556;29;20059;-66
2022/04/13 01:33:04;;;;;;;11.57;10.35;;;11.10;99.90;;;;;;4823702;29;20050;-66
2022/04/13 01:35:30;;;;;;;11.02;9.93;;;11.10;99.90;;;;;;4822469;29;20119;-65
2022/04/13 01:37:55;;;;;;;11.73;10.02;;;11.10;99.90;;;;;;4823009;29;20504;-66
2022/04/13 01:40:21;;;;;;;14.15;10.88;;;11.10;99.90;;;;;;4822485;29;20077;-66
2022/04/13 01:42:48;;;;;;;12.00;10.20;;;11.10;99.90;;;;;;4813503;29;20160;-65
2022/04/13 01:45:19;;;;;;;14.05;11.10;;;11.10;99.90;;;;;;4807598;29;20493;-66
2022/04/13 01:47:47;;;;;;;11.23;10.13;;;11.00;99.90;;;;;;4813502;29;20067;-66
2022/04/13 01:50:12;;;;;;;11.77;10.57;;;11.00;99.90;;;;;;4807978;29;20121;-66
2022/04/13 01:52:38;;;;;;;12.90;10.63;;;11.00;99.90;;;;;;4810748;29;20253;-66
2022/04/13 01:55:03;;;;;;;13.20;11.07;;;11.00;99.90;;;;;;4810162;29;20225;-65
2022/04/13 01:57:29;;;;;;;14.02;10.82;;;10.90;99.90;;;;;;4824947;29;20462;-66
2022/04/13 01:59:54;;;;;;;13.25;10.50;;;10.90;99.90;;;;;;4810437;29;20110;-66
2022/04/13 02:02:20;;;;;;;13.82;11.23;;;10.90;99.90;;;;;;4808860;29;20413;-65
2022/04/13 02:04:48;;;;;;;12.73;10.65;;;10.90;99.90;;;;;;4817127;29;20504;-66
2022/04/13 02:07:14;;;;;;;13.55;10.85;;;10.80;99.90;;;;;;4826085;29;20066;-66
2022/04/13 02:09:39;;;;;;;13.25;10.65;;;10.80;99.90;;;;;;4808436;29;20054;-66
2022/04/13 02:12:05;;;;;;;14.32;10.57;;;10.80;99.90;;;;;;4811697;29;20076;-65
2022/04/13 02:14:31;;;;;;;13.98;10.85;;;10.70;99.90;;;;;;4826454;29;20059;-65
2022/04/13 02:16:56;;;;;;;12.18;10.93;;;10.70;99.90;;;;;;4807223;29;20158;-66
2022/04/13 02:19:22;;;;;;;13.48;10.48;;;10.70;99.90;;;;;;4808501;29;20395;-65
2022/04/13 02:21:47;;;;;;;14.55;10.93;;;10.60;99.90;;;;;;4824352;29;20559;-66
2022/04/13 02:24:14;;;;;;;13.85;10.57;;;10.60;99.90;;;;;;4825455;29;20065;-65
2022/04/13 02:26:39;;;;;;;16.55;10.15;;;10.60;99.90;;;;;;4823972;29;20069;-66
2022/04/13 02:29:05;;;;;;;14.25;10.25;;;10.60;99.90;;;;;;4825179;29;20054;-65
2022/04/13 02:31:31;;;;;;;13.77;11.32;;;10.50;99.90;;;;;;4825639;29;20509;-65
2022/04/13 02:33:57;;;;;;;12.30;10.85;;;10.60;99.90;;;;;;4809733;29;20065;-66
2022/04/13 02:36:22;;;;;;;11.95;10.23;;;10.50;99.90;;;;;;4808654;29;20065;-65
2022/04/13 02:38:48;;;;;;;12.30;10.57;;;10.50;99.90;;;;;;4813253;29;20118;-66
2022/04/13 02:41:14;;;;;;;14.25;11.35;;;10.50;99.90;;;;;;4818445;29;20054;-65
2022/04/13 02:43:40;;;;;;;13.65;10.65;;;10.50;99.90;;;;;;4824532;29;20134;-66
2022/04/13 02:46:06;;;;;;;11.85;10.27;;;10.50;99.90;;;;;;4819070;29;20105;-67
2022/04/13 02:48:32;;;;;;;11.10;9.88;;;10.50;99.90;;;;;;4808226;29;20078;-66
2022/04/13 02:50:57;;;;;;;17.05;11.05;;;10.50;99.90;;;;;;4812138;29;20131;-66
2022/04/13 02:53:26;;;;;;;14.18;11.13;;;10.40;99.90;;;;;;4808257;29;20069;-66
2022/04/13 02:55:53;;;;;;;13.80;10.52;;;10.50;99.90;;;;;;4809579;29;20061;-66
2022/04/13 02:58:18;;;;;;;18.58;11.80;;;10.40;99.90;;;;;;4809398;29;20073;-65
2022/04/13 03:00:44;;;;;;;15.35;11.05;;;10.40;99.90;;;;;;4809517;29;20107;-66
2022/04/13 03:03:09;;;;;;;15.30;11.23;;;10.40;99.90;;;;;;4824538;29;20069;-66
2022/04/13 03:05:36;;;;;;;14.55;11.88;;;10.40;99.90;;;;;;4824466;29;20050;-67
2022/04/13 03:08:03;;;;;;;15.25;10.65;;;10.40;99.90;;;;;;4825438;29;20058;-66
2022/04/13 03:10:28;;;;;;;17.38;11.90;;;10.30;99.90;;;;;;4810162;29;20134;-66
2022/04/13 03:12:54;;;;;;;13.23;11.23;;;10.30;99.90;;;;;;4820364;29;20133;-66
2022/04/13 03:15:22;;;;;;;14.35;11.00;;;10.30;99.90;;;;;;4807610;29;20142;-66
2022/04/13 03:17:48;;;;;;;15.07;11.88;;;10.20;99.90;;;;;;4808361;29;20518;-66
2022/04/13 03:20:14;;;;;;;13.23;11.45;;;10.20;99.90;;;;;;4824480;29;20054;-65
2022/04/13 03:22:39;;;;;;;15.93;11.75;;;10.20;99.90;;;;;;4805689;29;20065;-66
2022/04/13 03:25:05;;;;;;;15.00;11.32;;;10.20;99.90;;;;;;4819701;29;20062;-66
2022/04/13 03:27:31;;;;;;;14.82;11.52;;;10.20;99.90;;;;;;4824820;29;20061;-66
2022/04/13 03:29:56;;;;;;;12.85;11.05;;;10.10;99.90;;;;;;4809208;29;20058;-66
2022/04/13 03:32:22;;;;;;;12.80;11.13;;;10.10;99.90;;;;;;4808633;29;20416;-66
2022/04/13 03:34:47;;;;;;;13.25;11.50;;;10.10;99.90;;;;;;4825482;29;20110;-66
2022/04/13 03:37:13;;;;;;;13.77;11.50;;;10.10;99.90;;;;;;4807991;29;20073;-66
2022/04/13 03:39:39;;;;;;;16.00;11.38;;;10.10;99.90;;;;;;4823446;29;20054;-66
2022/04/13 03:42:05;;;;;;;14.63;11.57;;;10.20;99.90;;;;;;4807703;29;20511;-66
2022/04/13 03:44:30;;;;;;;15.20;11.07;;;10.10;99.90;;;;;;4823635;29;20054;-66
2022/04/13 03:46:56;;;;;;;15.10;11.50;;;10.10;99.90;;;;;;4824679;29;20228;-66
2022/04/13 03:49:21;;;;;;;15.80;11.60;;;10.20;99.90;;;;;;4808979;29;20500;-66
2022/04/13 03:51:47;;;;;;;16.48;11.73;;;10.20;99.90;;;;;;4824996;29;20054;-66
2022/04/13 03:54:13;;;;;;;14.15;11.23;;;10.20;99.90;;;;;;4807890;29;20062;-66
2022/04/13 03:56:38;;;;;;;15.95;11.68;;;10.30;99.90;;;;;;4809708;29;20059;-66
2022/04/13 03:59:07;;;;;;;15.43;12.13;;;10.30;99.90;;;;;;4807757;29;20062;-66
2022/04/13 04:01:33;;;;;;;15.68;12.32;;;10.30;99.90;;;;;;4824522;29;20429;-66
2022/04/13 04:03:58;;;;;;;13.80;11.50;;;10.40;99.90;;;;;;4808898;29;20083;-66
2022/04/13 04:06:24;;;;;;;22.27;11.38;;;10.40;99.90;;;;;;4807884;29;20073;-66
2022/04/13 04:08:50;;;;;;;16.65;12.93;;;10.40;99.90;;;;;;4825114;29;20074;-66
2022/04/13 04:11:16;;;;;;;16.92;12.32;;;10.50;99.90;;;;;;4824629;29;20050;-66
2022/04/13 04:13:41;;;;;;;17.00;12.25;;;10.50;99.90;;;;;;4815774;29;20061;-66
2022/04/13 04:16:07;;;;;;;15.75;12.20;;;10.50;99.90;;;;;;4824457;29;20137;-65
2022/04/13 04:18:33;;;;;;;15.98;12.07;;;10.40;99.90;;;;;;4808394;29;20514;-66
2022/04/13 04:20:58;;;;;;;17.23;12.40;;;10.50;99.90;;;;;;4808011;29;20090;-66
2022/04/13 04:23:24;;;;;;;17.35;12.00;;;10.40;99.90;;;;;;4808003;29;20396;-66
2022/04/13 04:25:49;;;;;;;14.43;12.35;;;10.40;99.90;;;;;;4804084;29;20520;-66
2022/04/13 04:28:15;;;;;;;18.02;12.68;;;10.40;99.90;;;;;;4804185;29;20558;-66
2022/04/13 04:30:42;;;;;;;14.30;12.07;;;10.30;99.90;;;;;;4805030;29;20078;-66
2022/04/13 04:33:09;;;;;;;13.27;11.63;;;10.20;99.90;;;;;;4806269;29;20054;-66
2022/04/13 04:35:35;;;;;;;15.40;12.27;;;10.30;99.90;;;;;;4807677;29;20070;-66
2022/04/13 04:38:02;;;;;;;18.23;13.10;;;10.20;99.90;;;;;;4823273;29;20054;-66
2022/04/13 04:40:28;;;;;;;18.77;12.65;;;10.10;99.90;;;;;;4820184;29;20400;-66
2022/04/13 04:42:54;;;;;;;13.27;11.48;;;10.10;99.90;;;;;;4819413;29;20514;-67
2022/04/13 04:45:20;;;;;;;16.55;12.88;;;10.10;99.90;;;;;;4807872;29;20561;-65
2022/04/13 04:47:50;;;;;;;18.80;13.02;;;10.10;99.90;;;;;;4823750;29;20058;-66
2022/04/13 04:50:19;;;;;;;14.10;12.48;;;10.00;99.90;;;;;;4821345;29;20141;-66
2022/04/13 04:52:45;;;;;;;14.65;12.90;;;10.00;99.90;;;;;;4823578;29;20058;-66
2022/04/13 04:55:13;;;;;;;17.30;12.88;;;10.00;99.90;;;;;;4806557;29;20058;-66
2022/04/13 04:57:40;;;;;;;15.82;12.55;;;10.00;99.90;;;;;;4808109;29;20117;-65
2022/04/13 05:00:11;;;;;;;15.10;12.80;;;10.00;99.90;;;;;;4807173;29;20400;-66
2022/04/13 05:02:37;;;;;;;21.92;13.95;;;10.00;99.90;;;;;;4822637;29;20064;-66
2022/04/13 05:05:04;;;;;;;22.70;14.30;;;10.00;99.90;;;;;;4803939;29;20134;-65
2022/04/13 05:07:30;;;;;;;16.00;13.10;;;10.00;99.90;;;;;;4805885;29;20054;-66
2022/04/13 05:09:55;;;;;;;16.95;13.18;;;10.10;99.90;;;;;;4807334;29;20054;-66
2022/04/13 05:12:21;;;;;;;17.48;13.00;;;10.00;99.90;;;;;;4811225;29;20449;-65
2022/04/13 05:14:46;;;;;;;19.80;13.52;;;10.10;99.90;;;;;;4805766;29;20054;-66
2022/04/13 05:17:12;;;;;;;19.73;12.45;;;10.10;99.90;;;;;;4803415;29;20055;-66
2022/04/13 05:19:37;;;;;;;17.75;13.23;;;10.20;99.90;;;;;;4804497;29;20108;-66
2022/04/13 05:22:03;;;;;;;19.02;12.88;;;10.20;99.90;;;;;;4804141;29;20063;-66
2022/04/13 05:24:29;;;;;;;23.58;14.55;;;10.20;99.90;;;;;;4813775;29;20127;-66
2022/04/13 05:26:54;;;;;;;19.05;12.82;;;10.30;99.90;;;;;;4810932;29;20518;-65
2022/04/13 05:29:21;;;;;;;16.52;12.75;;;10.40;99.90;;;;;;4816244;29;20054;-66
2022/04/13 05:31:47;;;;;;;20.17;13.63;;;10.40;99.90;;;;;;4822435;29;20115;-66
2022/04/13 05:34:13;;;;;;;20.30;14.82;;;10.40;99.90;;;;;;4805740;29;20108;-66
2022/04/13 05:36:38;;;;;;;17.63;13.68;;;10.40;99.90;;;;;;4822425;29;20054;-65
2022/04/13 05:39:04;;;;;;;23.23;14.75;;;10.50;99.90;;;;;;4805148;29;20141;-66
2022/04/13 05:41:29;;;;;;;19.75;13.57;;;10.50;99.90;;;;;;4806438;29;20050;-66
2022/04/13 05:43:55;;;;;;;17.58;13.45;;;10.50;99.90;;;;;;4806817;29;20085;-66
2022/04/13 05:46:21;;;;;;;19.17;14.55;;;10.50;99.90;;;;;;4826865;29;20136;-67
2022/04/13 05:48:47;;;;;;;17.15;13.02;;;10.50;99.90;;;;;;4830209;29;20050;-66
2022/04/13 05:51:13;;;;;;;18.67;14.95;;;10.60;99.90;;;;;;4817841;29;20086;-66
2022/04/13 05:53:39;;;;;;;19.60;15.13;;;10.50;99.90;;;;;;4811846;29;20054;-66
2022/04/13 05:56:06;;;;;;;19.52;13.35;;;10.60;99.90;;;;;;4830796;29;20078;-66
2022/04/13 05:58:32;;;;;;;21.17;14.40;;;10.60;99.90;;;;;;4825370;29;20083;-67
2022/04/13 06:00:58;;;;;;;20.67;15.25;;;10.60;99.90;;;;;;4823050;29;20412;-66
2022/04/13 06:03:25;;;;;;;21.80;16.65;;;10.70;99.90;;;;;;4810679;29;20058;-66
2022/04/13 06:05:51;;;;;;;20.45;16.05;;;10.70;99.90;;;;;;4824610;29;20054;-67
2022/04/13 06:08:18;;;;;;;23.45;15.15;;;10.80;99.90;;;;;;4821680;29;20054;-67
2022/04/13 06:10:44;;;;;;;22.00;15.48;;;10.80;99.90;;;;;;4821659;29;20050;-66
2022/04/13 06:13:10;;;;;;;19.52;15.45;;;10.90;99.90;;;;;;4822071;29;21304;-66
2022/04/13 06:15:35;;;;;;;20.85;15.50;;;11.00;99.90;;;;;;4824120;29;20123;-66
2022/04/13 06:18:01;;;;;;;21.65;16.40;;;11.10;99.90;;;;;;4823381;29;20050;-65
2022/04/13 06:20:27;;;;;;;25.95;17.52;;;11.20;99.90;;;;;;4808117;29;20047;-68
2022/04/13 06:22:53;;;;;;;22.48;16.08;;;11.40;99.90;;;;;;4804649;29;20119;-66
2022/04/13 06:25:18;;;;;;;22.13;16.38;;;11.60;99.90;;;;;;4806068;29;20555;-67
2022/04/13 06:27:44;;;;;;;22.98;15.85;;;11.80;99.90;;;;;;4805599;29;20091;-66
2022/04/13 06:30:12;;;;;;;17.73;14.60;;;11.90;99.90;;;;;;4810061;29;20130;-66
2022/04/13 06:32:42;;;;;;;23.70;16.23;;;12.10;99.90;;;;;;4813917;29;20097;-66
2022/04/13 06:35:11;;;;;;;23.00;17.30;;;12.30;99.90;;;;;;4792291;29;20066;-66
2022/04/13 06:37:38;;;;;;;22.42;17.10;;;12.50;99.90;;;;;;4806027;29;20054;-67
2022/04/13 06:40:05;;;;;;;22.23;16.67;;;12.80;99.90;;;;;;4825491;29;20063;-66
2022/04/13 06:42:37;;;;;;;23.67;17.17;;;12.90;99.90;;;;;;4801619;29;20062;-67
2022/04/13 06:45:08;;;;;;;25.33;16.10;;;13.00;99.90;;;;;;4799606;29;20065;-67
2022/04/13 06:47:33;;;;;;;25.73;15.77;;;13.00;99.90;;;;;;4818391;29;20067;-66
2022/04/13 06:49:59;;;;;;;21.85;14.50;;;13.10;99.90;;;;;;4824710;29;20140;-66
2022/04/13 06:52:25;;;;;;;20.33;15.23;;;13.10;99.90;;;;;;4821706;29;20077;-67
2022/04/13 06:54:51;;;;;;;18.42;14.43;;;13.20;99.90;;;;;;4807446;29;20069;-67
2022/04/13 06:57:16;;;;;;;21.48;15.18;;;13.20;99.90;;;;;;4809542;29;20070;-68
2022/04/13 06:59:42;;;;;;;22.48;14.50;;;13.30;99.90;;;;;;4809506;29;20069;-68
2022/04/13 07:02:10;;;;;;;22.63;14.63;;;13.40;99.90;;;;;;4801643;29;20088;-67
2022/04/13 07:04:37;;;;;;;20.38;14.38;;;13.50;99.90;;;;;;4818553;29;20055;-67
2022/04/13 07:07:02;;;;;;;19.58;14.40;;;13.60;99.90;;;;;;4810297;29;20137;-67
2022/04/13 07:09:28;;;;;;;19.13;13.55;;;13.60;99.90;;;;;;4797610;29;20134;-67
2022/04/13 07:11:54;;;;;;;19.70;13.05;;;13.60;99.90;;;;;;4809250;29;20064;-66
2022/04/13 07:14:20;;;;;;;17.20;12.80;;;13.70;99.90;;;;;;4807463;29;20191;-66
2022/04/13 07:16:46;;;;;;;17.88;13.13;;;13.80;99.90;;;;;;4806228;29;20149;-66
2022/04/13 07:19:11;;;;;;;17.55;12.77;;;13.90;99.90;;;;;;4823545;29;20082;-67
2022/04/13 07:21:37;;;;;;;18.55;12.85;;;14.00;99.90;;;;;;4826000;29;20177;-66
2022/04/13 07:24:02;;;;;;;19.38;13.43;;;14.10;99.90;;;;;;4808202;29;20404;-67
2022/04/13 07:26:29;;;;;;;19.77;13.02;;;14.10;99.90;;;;;;4824701;29;20066;-68
2022/04/13 07:28:54;;;;;;;19.10;12.90;;;14.30;99.90;;;;;;4823310;29;20069;-66
2022/04/13 07:31:20;;;;;;;14.50;12.30;;;14.40;99.90;;;;;;4809072;29;20058;-67
2022/04/13 07:33:45;;;;;;;14.77;11.68;;;14.60;99.90;;;;;;4820221;29;20404;-67
2022/04/13 07:36:12;;;;;;;16.42;11.82;;;14.80;99.90;;;;;;4807721;29;20050;-67
2022/04/13 07:38:38;;;;;;;16.65;11.75;;;14.90;99.90;;;;;;4823824;29;20050;-67
2022/04/13 07:41:04;;;;;;;18.52;11.75;;;15.00;99.90;;;;;;4824847;29;20065;-67
2022/04/13 07:43:30;;;;;;;16.23;10.77;;;15.00;99.90;;;;;;4806379;29;20058;-67
2022/04/13 07:45:55;;;;;;;16.30;11.38;;;14.90;99.90;;;;;;4808165;29;21011;-67
2022/04/13 07:48:21;;;;;;;17.02;12.30;;;14.90;99.90;;;;;;4807107;29;20050;-67
2022/04/13 07:50:47;;;;;;;16.13;11.75;;;14.90;99.90;;;;;;4809137;29;20503;-66
2022/04/13 07:53:14;;;;;;;16.23;12.00;;;14.90;99.90;;;;;;4807832;29;20058;-67
2022/04/13 07:55:40;;;;;;;18.35;13.10;;;14.90;99.90;;;;;;4809262;29;20134;-67
2022/04/13 07:58:06;;;;;;;14.60;12.43;;;14.90;99.90;;;;;;4822533;29;20522;-68
2022/04/13 08:00:32;;;;;;;16.05;11.75;;;15.00;99.90;;;;;;4808494;29;20054;-67
2022/04/13 08:02:58;;;;;;;16.75;12.77;;;15.00;99.90;;;;;;4823964;29;20069;-68
2022/04/13 08:05:24;;;;;;;18.70;13.07;;;15.00;99.90;;;;;;4823325;29;20062;-67
2022/04/13 08:07:49;;;;;;;18.98;12.73;;;15.00;99.90;;;;;;4807755;29;20058;-67
2022/04/13 08:10:15;;;;;;;19.40;12.40;;;15.10;99.90;;;;;;4808341;29;20054;-67
2022/04/13 08:12:41;;;;;;;18.15;13.45;;;15.10;99.90;;;;;;4821646;29;20361;-67
2022/04/13 08:15:07;;;;;;;20.98;12.88;;;15.20;99.90;;;;;;4825036;29;20114;-67
2022/04/13 08:17:33;;;;;;;17.23;11.73;;;15.20;99.90;;;;;;4822436;29;20543;-67
2022/04/13 08:19:59;;;;;;;18.38;11.50;;;15.30;99.90;;;;;;4806943;29;20133;-67
2022/04/13 08:22:27;;;;;;;15.82;10.75;;;15.20;99.90;;;;;;4805490;29;20054;-67
2022/04/13 08:24:53;;;;;;;14.02;9.82;;;15.30;99.90;;;;;;4807859;29;20089;-66
2022/04/13 08:27:19;;;;;;;14.07;10.45;;;15.30;99.90;;;;;;4822765;29;20050;-66
2022/04/13 08:29:46;;;;;;;15.98;9.85;;;15.30;99.90;;;;;;4815631;29;20065;-68
2022/04/13 08:32:15;;;;;;;16.05;10.35;;;15.30;99.90;;;;;;4806183;29;20430;-67
2022/04/13 08:34:40;;;;;;;13.60;9.23;;;15.20;99.90;;;;;;4823354;29;20524;-68
2022/04/13 08:37:06;;;;;;;11.45;8.95;;;15.30;99.90;;;;;;4823790;29;20077;-68
2022/04/13 08:39:32;;;;;;;13.18;9.40;;;15.30;99.90;;;;;;4823058;29;20050;-67
2022/04/13 08:42:06;;;;;;;13.73;9.43;;;15.40;99.90;;;;;;4807353;29;20064;-68
2022/04/13 08:44:48;;;;;;;12.32;8.90;;;15.50;99.90;;;;;;4806848;29;20058;-67
2022/04/13 08:47:20;;;;;;;16.33;9.43;;;15.60;99.90;;;;;;4822830;29;20412;-67
2022/04/13 08:49:50;;;;;;;13.65;8.73;;;15.70;99.90;;;;;;4806926;29;20146;-68
2022/04/13 08:52:39;;;;;;;13.88;9.13;;;15.70;99.90;;;;;;4807061;29;20146;-67
2022/04/13 08:55:14;;;;;;;13.70;9.13;;;15.90;99.90;;;;;;4823639;29;20066;-68
2022/04/13 08:57:47;;;;;;;9.80;8.13;;;16.00;99.90;;;;;;4807001;29;20069;-67
2022/04/13 09:00:14;;;;;;;11.57;8.30;;;16.00;99.90;;;;;;4824476;29;20083;-67
2022/04/13 09:03:12;;;;;;;14.13;8.75;;;16.00;99.90;;;;;;4816510;29;20164;-67
2022/04/13 09:05:40;;;;;;;11.43;8.23;;;16.10;99.90;;;;;;4812882;29;20077;-68
2022/04/13 09:08:19;;;;;;;13.70;9.18;;;16.20;99.90;;;;;;4824259;29;20141;-67
2022/04/13 09:10:47;;;;;;;14.02;9.40;;;16.30;99.90;;;;;;4823468;29;20412;-68
2022/04/13 09:13:14;;;;;;;11.20;8.32;;;16.40;99.90;;;;;;4807075;29;20097;-68
2022/04/13 09:15:41;;;;;;;10.80;8.15;;;16.50;99.90;;;;;;4820798;29;20066;-67
2022/04/13 09:18:08;;;;;;;8.60;7.43;;;16.60;99.90;;;;;;4817018;29;20054;-68
2022/04/13 09:20:35;;;;;;;11.57;7.38;;;16.70;99.90;;;;;;4819459;29;20449;-68
2022/04/13 09:23:01;;;;;;;11.73;6.93;;;16.80;99.90;;;;;;4789258;29;20062;-68
2022/04/13 09:25:29;;;;;;;11.55;6.40;;;16.80;99.90;;;;;;4817027;29;20442;-68
2022/04/13 09:27:56;;;;;;;9.38;6.50;;;16.80;99.90;;;;;;4823037;29;20058;-67
2022/04/13 09:30:22;;;;;;;8.52;5.78;;;16.80;99.90;;;;;;4813983;29;20111;-67
2022/04/13 09:32:50;;;;;;;7.63;5.35;;;16.80;99.90;;;;;;4823230;29;20054;-68
2022/04/13 09:35:16;;;;;;;7.15;5.32;;;16.90;99.90;;;;;;4823475;29;20133;-68
2022/04/13 09:37:42;;;;;;;8.88;5.47;;;17.00;99.90;;;;;;4821814;29;20058;-68
2022/04/13 09:40:09;;;;;;;10.82;6.05;;;17.10;99.90;;;;;;4806350;29;20065;-67
2022/04/13 09:42:35;;;;;;;9.75;6.10;;;17.20;99.90;;;;;;4822978;29;20077;-67
2022/04/13 09:45:02;;;;;;;7.75;6.05;;;17.30;99.90;;;;;;4821755;29;20129;-68
2022/04/13 09:47:33;;;;;;;7.20;5.25;;;17.40;99.90;;;;;;4823658;29;20066;-67
2022/04/13 09:49:59;;;;;;;8.38;5.47;;;17.50;99.90;;;;;;4806249;29;20047;-67
2022/04/13 09:52:37;;;;;;;6.75;5.40;;;17.70;99.90;;;;;;4823945;29;20050;-67
2022/04/13 09:55:07;;;;;;;8.95;5.53;;;17.80;99.90;;;;;;4806612;29;20408;-66
2022/04/13 09:57:33;;;;;;;8.68;5.20;;;17.90;99.90;;;;;;4823082;29;20093;-68
2022/04/13 10:00:00;;;;;;;7.63;5.47;;;18.00;99.90;;;;;;4822657;29;20077;-69
2022/04/13 10:02:39;;;;;;;8.05;6.07;;;18.00;99.90;;;;;;4809682;29;20087;-67
2022/04/13 10:05:07;;;;;;;7.47;5.70;;;17.90;99.90;;;;;;4827000;29;20091;-67
2022/04/13 10:07:34;;;;;;;8.07;5.70;;;17.90;99.90;;;;;;4825980;29;20077;-67
2022/04/13 10:09:59;;;;;;;10.15;5.47;;;18.00;99.90;;;;;;4823266;29;20042;-67
2022/04/13 10:12:25;;;;;;;8.57;5.03;;;18.00;99.90;;;;;;4809952;29;20062;-68
2022/04/13 10:14:51;;;;;;;7.93;6.00;;;18.00;99.90;;;;;;4825437;29;20556;-68
2022/04/13 10:17:17;;;;;;;8.68;5.75;;;18.00;99.90;;;;;;4816455;29;20117;-67
2022/04/13 10:19:53;;;;;;;8.70;5.22;;;18.00;99.90;;;;;;4809832;29;20174;-68
2022/04/13 10:22:18;;;;;;;8.10;4.80;;;18.00;99.90;;;;;;4822918;29;20488;-68
2022/04/13 10:24:44;;;;;;;6.60;4.65;;;18.00;99.90;;;;;;4823990;29;20185;-67
2022/04/13 10:27:16;;;;;;;10.60;6.10;;;17.90;99.90;;;;;;4825679;29;20046;-67
2022/04/13 10:29:43;;;;;;;7.30;4.68;;;17.80;99.90;;;;;;4822366;29;20497;-67
2022/04/13 10:32:16;;;;;;;8.73;5.50;;;18.00;99.90;;;;;;4808928;29;20117;-67
2022/04/13 10:34:47;;;;;;;9.05;5.35;;;18.00;99.90;;;;;;4809939;29;20173;-66
2022/04/13 10:37:15;;;;;;;6.78;4.82;;;18.10;99.90;;;;;;4825155;29;20065;-67
2022/04/13 10:39:41;;;;;;;8.50;5.35;;;18.20;99.90;;;;;;4826441;29;20400;-67
2022/04/13 10:42:12;;;;;;;5.05;4.25;;;18.30;99.90;;;;;;4806597;29;20050;-67
2022/04/13 10:44:43;;;;;;;4.50;3.60;;;18.40;99.90;;;;;;4826331;29;20061;-67
2022/04/13 10:47:12;;;;;;;5.30;3.53;;;18.50;99.90;;;;;;4808859;29;20407;-67
2022/04/13 10:50:08;;;;;;;5.22;3.72;;;18.70;99.90;;;;;;4816867;29;20087;-67
2022/04/13 10:52:40;;;;;;;7.28;3.97;;;18.90;99.90;;;;;;4815219;29;20427;-67
2022/04/13 10:55:11;;;;;;;4.53;3.47;;;19.10;99.90;;;;;;4823400;29;20050;-66
2022/04/13 10:57:46;;;;;;;4.53;3.93;;;19.20;99.90;;;;;;4823526;29;20408;-65
2022/04/13 11:00:16;;;;;;;8.18;3.83;;;19.20;99.90;;;;;;4823070;29;20325;-66
2022/04/13 11:03:05;;;;;;;5.00;3.92;;;19.20;99.90;;;;;;4824017;29;20083;-65
2022/04/13 11:05:32;;;;;;;4.85;4.20;;;19.20;99.90;;;;;;4826123;29;20062;-66
2022/04/13 11:08:37;;;;;;;5.70;4.78;;;19.10;99.90;;;;;;4824625;29;20172;-66
2022/04/13 11:11:04;;;;;;;6.25;3.90;;;19.00;99.90;;;;;;4824975;29;20084;-66
2022/04/13 11:13:33;;;;;;;5.82;3.25;;;19.00;99.90;;;;;;4808322;29;20456;-66
2022/04/13 11:16:18;;;;;;;5.60;3.25;;;19.00;99.90;;;;;;4822315;29;20074;-66
2022/04/13 11:19:06;;;;;;;4.90;3.20;;;19.10;99.90;;;;;;4810560;29;20125;-66
2022/04/13 11:21:52;;;;;;;4.43;3.05;;;18.90;95.70;;;;;;4824524;29;20571;-66
2022/04/13 11:24:32;;;;;;;3.83;2.78;;;18.80;99.90;;;;;;4818708;29;20068;-66
2022/04/13 11:26:58;;;;;;;4.90;2.65;;;18.70;99.90;;;;;;4823320;29;20057;-66
2022/04/13 11:29:32;;;;;;;4.60;2.45;;;18.90;99.90;;;;;;4806709;29;20132;-66
2022/04/13 11:32:01;;;;;;;7.15;4.20;;;19.00;99.90;;;;;;4811888;29;20058;-65
2022/04/13 11:34:43;;;;;;;6.13;4.68;;;19.00;99.90;;;;;;4820442;29;20059;-66
2022/04/13 11:37:23;;;;;;;5.72;3.47;;;19.20;99.90;;;;;;4819556;29;20066;-66
2022/04/13 11:39:59;;;;;;;2.75;2.03;;;19.20;99.90;;;;;;4805180;29;20054;-65
2022/04/13 11:42:34;;;;;;;4.13;2.20;;;19.20;99.90;;;;;;4818864;29;20062;-65
2022/04/13 11:45:01;;;;;;;5.65;3.10;;;19.10;99.90;;;;;;4824933;29;20118;-66
2022/04/13 11:47:38;;;;;;;8.98;3.10;;;19.00;99.90;;;;;;4825091;29;20439;-66
2022/04/13 11:50:25;;;;;;;6.45;3.60;;;19.00;99.90;;;;;;4821853;29;20055;-66
2022/04/13 11:52:57;;;;;;;6.90;3.70;;;18.90;99.90;;;;;;4799799;29;20058;-65
2022/04/13 11:55:35;;;;;;;5.75;4.00;;;18.70;99.90;;;;;;4817397;29;20069;-65
2022/04/13 11:58:07;;;;;;;4.85;3.40;;;18.60;99.90;;;;;;4823722;29;20050;-66
2022/04/13 12:01:07;;;;;;;7.35;3.33;;;18.70;99.90;;;;;;4824074;29;20051;-66
2022/04/13 12:03:35;;;;;;;3.83;2.35;;;18.70;99.90;;;;;;4824427;29;20381;-66
2022/04/13 12:06:03;;;;;;;3.67;2.30;;;18.80;99.90;;;;;;4803357;29;20524;-65
2022/04/13 12:08:53;;;;;;;7.03;3.05;;;18.90;99.90;;;;;;4810420;29;20119;-65
2022/04/13 12:11:42;;;;;;;8.25;3.53;;;19.00;99.90;;;;;;4820582;29;20065;-65
2022/04/13 12:14:11;;;;;;;7.75;3.35;;;18.90;99.90;;;;;;4823637;29;20119;-65
2022/04/13 12:16:41;;;;;;;6.80;2.75;;;18.80;99.90;;;;;;4813621;29;20125;-66
2022/04/13 12:19:09;;;;;;;5.15;2.10;;;18.70;99.90;;;;;;4821786;29;20372;-66
2022/04/13 12:21:37;;;;;;;4.22;1.85;;;18.70;99.90;;;;;;4824295;29;20527;-65
2022/04/13 12:24:04;;;;;;;6.55;2.20;;;18.80;99.90;;;;;;4823450;29;20066;-66
2022/04/13 12:26:35;;;;;;;5.13;2.20;;;18.90;99.90;;;;;;4820789;29;20089;-66
2022/04/13 12:29:12;;;;;;;6.30;3.33;;;19.00;99.90;;;;;;4813700;29;20058;-66
2022/04/13 12:31:45;;;;;;;8.13;2.60;;;18.90;99.90;;;;;;4821397;29;20051;-65
2022/04/13 12:34:14;;;;;;;5.90;2.92;;;18.90;99.90;;;;;;4821275;29;20133;-66
2022/04/13 12:36:40;;;;;;;6.25;3.28;;;18.80;99.90;;;;;;4819392;29;20063;-65